Time;durP1;ratioP1;P1;durP2;ratioP2;P2;SDS_P1;SDS_P2;PMS_P1;PMS_P2;Temp;Humidity;BMP_temperature;BMP_pressure;BME280_temperature;BME280_humidity;BME280_pressure;Samples;Min_cycle;Max_cycle;Signal;HPM_P1;HPM_P2
2023/07/11 00:00:15;;;;;;;4.32;2.00;;;20.40;99.90;;;;;;5033690;28;20202;-82
2023/07/11 00:02:42;;;;;;;6.22;1.90;;;20.40;99.90;;;;;;5032883;28;20202;-83
2023/07/11 00:05:14;;;;;;;4.32;2.03;;;20.40;99.90;;;;;;5033423;28;20692;-82
2023/07/11 00:07:43;;;;;;;4.60;2.53;;;20.40;99.90;;;;;;5033309;28;20291;-83
2023/07/11 00:10:14;;;;;;;2.78;1.88;;;20.40;99.90;;;;;;5038697;28;20206;-82
2023/07/11 00:12:41;;;;;;;3.33;1.75;;;20.40;99.90;;;;;;5053337;28;20256;-82
2023/07/11 00:15:11;;;;;;;4.53;1.67;;;20.40;99.90;;;;;;5053477;28;20237;-82
2023/07/11 00:17:39;;;;;;;4.05;1.50;;;20.30;99.90;;;;;;5050625;28;20287;-81
2023/07/11 00:20:08;;;;;;;2.75;1.77;;;20.30;99.90;;;;;;5033081;28;20237;-81
2023/07/11 00:22:35;;;;;;;3.05;1.77;;;20.30;99.90;;;;;;5033282;28;20245;-81
2023/07/11 00:25:05;;;;;;;6.30;2.25;;;20.30;99.90;;;;;;5032494;28;20693;-81
2023/07/11 00:27:32;;;;;;;5.70;2.45;;;20.20;99.90;;;;;;5041973;28;20245;-81
2023/07/11 00:29:59;;;;;;;3.70;2.05;;;20.20;99.90;;;;;;5052646;28;20185;-81
2023/07/11 00:32:26;;;;;;;2.55;1.77;;;20.20;99.90;;;;;;5053202;28;20198;-81
2023/07/11 00:34:53;;;;;;;2.58;1.48;;;20.10;99.90;;;;;;5053173;28;20273;-81
2023/07/11 00:37:21;;;;;;;3.25;1.60;;;20.10;99.90;;;;;;5040102;28;20285;-81
2023/07/11 00:39:48;;;;;;;2.22;1.67;;;20.00;99.90;;;;;;5033075;28;20246;-82
2023/07/11 00:42:16;;;;;;;2.38;1.80;;;20.00;99.90;;;;;;5052588;28;20221;-81
2023/07/11 00:44:51;;;;;;;2.40;1.50;;;20.00;99.90;;;;;;5052318;28;20320;-81
2023/07/11 00:47:18;;;;;;;3.28;1.52;;;19.90;99.90;;;;;;5052671;28;20426;-81
2023/07/11 00:49:46;;;;;;;3.13;1.67;;;19.90;99.90;;;;;;5051582;28;20288;-81
2023/07/11 00:52:15;;;;;;;2.60;1.70;;;19.80;99.90;;;;;;5032705;28;20232;-81
2023/07/11 00:54:47;;;;;;;3.10;1.88;;;19.80;99.90;;;;;;5032716;28;20210;-82
2023/07/11 00:57:15;;;;;;;5.95;1.92;;;19.80;99.90;;;;;;5032791;28;20202;-81
2023/07/11 00:59:43;;;;;;;2.47;1.80;;;19.80;99.90;;;;;;5032300;28;20210;-81
2023/07/11 01:02:14;;;;;;;3.97;1.92;;;19.70;99.90;;;;;;5032721;28;20201;-84
2023/07/11 01:04:41;;;;;;;4.30;2.22;;;19.70;99.90;;;;;;5032792;28;20289;-84
2023/07/11 01:07:11;;;;;;;4.53;2.00;;;19.60;99.90;;;;;;5031897;28;20250;-84
2023/07/11 01:09:38;;;;;;;5.88;2.55;;;19.60;99.90;;;;;;5032919;28;20234;-84
2023/07/11 01:12:12;;;;;;;5.53;2.33;;;19.50;99.90;;;;;;5033104;28;20285;-79
2023/07/11 01:14:42;;;;;;;5.03;2.28;;;19.50;99.90;;;;;;5052810;28;20205;-84
2023/07/11 01:17:27;;;;;;;5.05;1.90;;;19.50;99.90;;;;;;5052442;28;20634;-81
2023/07/11 01:19:55;;;;;;;2.80;2.03;;;19.50;99.90;;;;;;5052555;28;20201;-81
2023/07/11 01:22:24;;;;;;;3.28;2.17;;;19.40;99.90;;;;;;5051895;28;20241;-82
2023/07/11 01:24:52;;;;;;;2.78;2.05;;;19.40;99.90;;;;;;5052509;28;20202;-82
2023/07/11 01:27:20;;;;;;;3.95;2.10;;;19.40;99.90;;;;;;5051765;28;20236;-82
2023/07/11 01:29:49;;;;;;;3.53;2.00;;;19.30;99.90;;;;;;5024667;28;20617;-82
2023/07/11 01:32:16;;;;;;;4.32;2.53;;;19.30;99.90;;;;;;5032803;28;20213;-81
2023/07/11 01:34:43;;;;;;;2.90;2.15;;;19.30;99.90;;;;;;5032064;28;20265;-82
2023/07/11 01:37:10;;;;;;;5.57;2.22;;;19.20;99.90;;;;;;5052195;28;20264;-82
2023/07/11 01:39:38;;;;;;;3.60;2.08;;;19.20;99.90;;;;;;5052218;28;20229;-81
2023/07/11 01:42:06;;;;;;;3.38;2.20;;;19.20;99.90;;;;;;5051965;28;20206;-80
2023/07/11 01:44:33;;;;;;;2.88;2.00;;;19.10;99.90;;;;;;5054711;28;20260;-81
2023/07/11 01:47:02;;;;;;;5.57;2.22;;;19.10;99.90;;;;;;5053968;28;20226;-80
2023/07/11 01:49:29;;;;;;;4.70;1.95;;;19.00;99.90;;;;;;5052189;28;20190;-81
2023/07/11 01:52:04;;;;;;;5.55;2.70;;;19.00;99.90;;;;;;5052024;28;20467;-82
2023/07/11 01:54:31;;;;;;;5.05;2.22;;;18.90;99.90;;;;;;5051641;28;20190;-81
2023/07/11 01:57:01;;;;;;;3.80;2.20;;;18.80;99.90;;;;;;5052263;28;20543;-80
2023/07/11 01:59:28;;;;;;;2.65;1.83;;;18.80;99.90;;;;;;5055421;28;20204;-82
2023/07/11 02:01:55;;;;;;;2.67;1.90;;;18.80;99.90;;;;;;5055007;28;20206;-81
2023/07/11 02:04:22;;;;;;;4.45;2.20;;;18.70;99.90;;;;;;5056107;28;20202;-81
2023/07/11 02:06:50;;;;;;;4.05;2.10;;;18.70;99.90;;;;;;5055308;28;20308;-80
2023/07/11 02:09:18;;;;;;;4.28;2.30;;;18.70;99.90;;;;;;5074931;28;20225;-81
2023/07/11 02:11:45;;;;;;;4.82;2.47;;;18.70;99.90;;;;;;5075053;28;20197;-82
2023/07/11 02:14:18;;;;;;;3.47;2.20;;;18.60;99.90;;;;;;5075837;28;20228;-82
2023/07/11 02:16:45;;;;;;;4.05;2.25;;;18.60;99.90;;;;;;5066269;28;20234;-83
2023/07/11 02:19:12;;;;;;;4.55;2.40;;;18.60;99.90;;;;;;5055087;28;20295;-82
2023/07/11 02:21:40;;;;;;;3.67;2.20;;;18.60;99.90;;;;;;5055386;28;20202;-81
2023/07/11 02:24:09;;;;;;;4.20;2.20;;;18.60;99.90;;;;;;5055230;28;20222;-84
2023/07/11 02:26:36;;;;;;;4.30;2.42;;;18.60;99.90;;;;;;5054925;28;20471;-82
2023/07/11 02:29:04;;;;;;;4.80;2.30;;;18.60;99.90;;;;;;5055534;28;20294;-82
2023/07/11 02:31:35;;;;;;;4.45;2.40;;;18.60;99.90;;;;;;5054741;28;20209;-82
2023/07/11 02:34:03;;;;;;;6.72;2.65;;;18.50;99.90;;;;;;5055479;28;20266;-82
2023/07/11 02:36:31;;;;;;;5.28;2.50;;;18.50;99.90;;;;;;5054893;28;20280;-81
2023/07/11 02:38:58;;;;;;;5.00;2.70;;;18.50;99.90;;;;;;5055311;28;20202;-82
2023/07/11 02:41:25;;;;;;;4.78;2.28;;;18.50;99.90;;;;;;5055369;28;20202;-81
2023/07/11 02:43:53;;;;;;;5.45;2.97;;;18.40;99.90;;;;;;5054392;28;20541;-81
2023/07/11 02:46:21;;;;;;;6.30;3.00;;;18.40;99.90;;;;;;5058532;28;20221;-82
2023/07/11 02:48:49;;;;;;;5.57;3.08;;;18.40;99.90;;;;;;5075084;28;20204;-83
2023/07/11 02:51:17;;;;;;;3.38;2.25;;;18.30;99.90;;;;;;5068316;28;20693;-82
2023/07/11 02:53:44;;;;;;;4.82;2.42;;;18.20;99.90;;;;;;5055067;28;20200;-82
2023/07/11 02:56:11;;;;;;;2.88;2.05;;;18.20;99.90;;;;;;5055317;28;20193;-81
2023/07/11 02:58:38;;;;;;;5.03;2.88;;;18.20;99.90;;;;;;5054376;28;20204;-81
2023/07/11 03:01:06;;;;;;;5.75;3.20;;;18.10;99.90;;;;;;5054987;28;20202;-82
2023/07/11 03:03:33;;;;;;;6.43;2.88;;;18.10;99.90;;;;;;5054420;28;20292;-82
2023/07/11 03:06:01;;;;;;;6.32;3.20;;;18.10;99.90;;;;;;5054183;28;20549;-82
2023/07/11 03:08:28;;;;;;;6.13;2.78;;;18.10;99.90;;;;;;5054157;28;20224;-82
2023/07/11 03:10:58;;;;;;;6.55;3.15;;;18.10;99.90;;;;;;5054417;28;20233;-82
2023/07/11 03:13:26;;;;;;;5.43;2.28;;;18.00;99.90;;;;;;5054407;28;20656;-83
2023/07/11 03:15:53;;;;;;;4.40;2.25;;;18.00;99.90;;;;;;5054201;28;20300;-82
2023/07/11 03:18:20;;;;;;;5.13;3.05;;;18.00;99.90;;;;;;5054664;28;20205;-82
2023/07/11 03:20:47;;;;;;;4.15;2.65;;;18.00;99.90;;;;;;5065402;28;20209;-82
2023/07/11 03:23:18;;;;;;;5.53;2.65;;;18.00;99.90;;;;;;5074850;28;20547;-82
2023/07/11 03:25:45;;;;;;;4.72;2.70;;;18.00;99.90;;;;;;5073749;28;20197;-82
2023/07/11 03:28:12;;;;;;;5.32;2.88;;;17.90;99.90;;;;;;5058532;28;20213;-82
2023/07/11 03:30:39;;;;;;;4.45;3.00;;;17.90;99.90;;;;;;5054698;28;20198;-82
2023/07/11 03:33:06;;;;;;;5.45;2.92;;;17.90;99.90;;;;;;5053905;28;20925;-82
2023/07/11 03:35:35;;;;;;;4.75;2.65;;;17.90;99.90;;;;;;5054017;28;20517;-82
2023/07/11 03:38:02;;;;;;;4.80;2.58;;;17.90;99.90;;;;;;5054509;28;20240;-81
2023/07/11 03:40:31;;;;;;;3.92;3.13;;;17.90;99.90;;;;;;5053613;28;20198;-82
2023/07/11 03:42:58;;;;;;;5.50;2.88;;;17.90;99.90;;;;;;5054460;28;20195;-82
2023/07/11 03:45:25;;;;;;;4.03;2.70;;;17.90;99.90;;;;;;5054044;28;20689;-82
2023/07/11 03:47:53;;;;;;;6.20;3.03;;;17.90;99.90;;;;;;5053556;28;20230;-82
2023/07/11 03:50:20;;;;;;;4.00;2.60;;;17.90;99.90;;;;;;5053482;28;20206;-82
2023/07/11 03:52:48;;;;;;;4.38;2.72;;;17.90;99.90;;;;;;5053831;28;20796;-82
2023/07/11 03:55:15;;;;;;;3.25;2.53;;;17.90;99.90;;;;;;5053363;28;20202;-83
2023/07/11 03:57:43;;;;;;;4.72;2.67;;;17.90;99.90;;;;;;5058635;28;20198;-83
2023/07/11 04:00:11;;;;;;;4.72;2.95;;;17.90;99.90;;;;;;5073955;28;20197;-82
2023/07/11 04:02:39;;;;;;;7.35;3.63;;;17.90;99.90;;;;;;5073164;28;20280;-82
2023/07/11 04:05:06;;;;;;;4.63;2.80;;;17.80;99.90;;;;;;5073723;28;20240;-82
2023/07/11 04:07:33;;;;;;;4.47;3.03;;;17.80;99.90;;;;;;5061723;28;20230;-82
2023/07/11 04:10:00;;;;;;;3.72;2.70;;;17.80;99.90;;;;;;5053226;28;20550;-83
2023/07/11 04:12:27;;;;;;;5.75;3.20;;;17.80;99.90;;;;;;5053287;28;20281;-82
2023/07/11 04:14:55;;;;;;;4.07;3.22;;;17.90;99.90;;;;;;5061824;28;20279;-82
2023/07/11 04:17:22;;;;;;;5.75;3.17;;;17.90;99.90;;;;;;5072807;28;20298;-82
2023/07/11 04:19:50;;;;;;;8.20;3.40;;;17.90;99.90;;;;;;5073351;28;20591;-82
2023/07/11 04:22:18;;;;;;;7.53;3.90;;;17.90;99.90;;;;;;5072363;28;20208;-83
2023/07/11 04:24:45;;;;;;;5.85;3.58;;;18.00;99.90;;;;;;5073306;28;20228;-83
2023/07/11 04:27:12;;;;;;;9.13;3.85;;;18.10;99.90;;;;;;5073395;28;20213;-82
2023/07/11 04:29:39;;;;;;;6.15;3.42;;;18.10;99.90;;;;;;5065885;28;20590;-82
2023/07/11 04:32:08;;;;;;;6.03;4.00;;;18.20;99.90;;;;;;5053351;28;20277;-82
2023/07/11 04:34:35;;;;;;;4.97;3.47;;;18.20;99.90;;;;;;5053088;28;20202;-82
2023/07/11 04:37:02;;;;;;;9.00;3.83;;;18.30;99.90;;;;;;5052571;28;20292;-83
2023/07/11 04:39:29;;;;;;;6.88;3.50;;;18.30;99.90;;;;;;5053302;28;20544;-81
2023/07/11 04:41:56;;;;;;;6.57;3.30;;;18.30;99.90;;;;;;5052931;28;20288;-81
2023/07/11 04:44:23;;;;;;;5.97;2.65;;;18.40;99.90;;;;;;5052533;28;20544;-83
2023/07/11 04:46:50;;;;;;;6.03;2.72;;;18.40;99.90;;;;;;5052389;28;20578;-80
2023/07/11 04:49:18;;;;;;;3.75;2.25;;;18.40;99.90;;;;;;5035061;28;20216;-82
2023/07/11 04:51:45;;;;;;;7.82;2.97;;;18.50;99.90;;;;;;5052290;28;20206;-81
2023/07/11 04:54:12;;;;;;;5.82;2.70;;;18.50;99.90;;;;;;5070487;28;20205;-82
2023/07/11 04:56:40;;;;;;;3.60;1.85;;;18.60;99.90;;;;;;5072666;28;20255;-82
2023/07/11 04:59:06;;;;;;;4.82;2.40;;;18.60;99.90;;;;;;5072062;28;20209;-82
2023/07/11 05:01:33;;;;;;;4.80;2.00;;;18.70;99.90;;;;;;5072512;28;20530;-84
2023/07/11 05:04:00;;;;;;;5.00;1.90;;;18.70;99.90;;;;;;5072454;28;20201;-81
2023/07/11 05:06:28;;;;;;;4.07;2.00;;;18.80;99.90;;;;;;5057946;28;20316;-82
2023/07/11 05:08:55;;;;;;;4.13;2.10;;;18.90;99.90;;;;;;5052354;28;20284;-81
2023/07/11 05:11:23;;;;;;;6.00;1.92;;;19.10;99.90;;;;;;5052031;28;20244;-82
2023/07/11 05:13:51;;;;;;;2.88;1.70;;;19.30;99.90;;;;;;5052997;28;20214;-81
2023/07/11 05:16:21;;;;;;;3.78;1.73;;;19.60;99.90;;;;;;5052431;28;20230;-82
2023/07/11 05:18:49;;;;;;;2.60;1.42;;;19.70;99.90;;;;;;5051722;28;20194;-83
2023/07/11 05:21:20;;;;;;;3.78;1.67;;;19.70;99.90;;;;;;5052221;28;20319;-83
2023/07/11 05:23:48;;;;;;;4.00;1.75;;;19.80;99.90;;;;;;5052254;28;20243;-81
2023/07/11 05:26:17;;;;;;;4.60;1.77;;;20.00;99.90;;;;;;5051496;28;20225;-81
2023/07/11 05:28:44;;;;;;;3.25;1.85;;;20.10;99.90;;;;;;5051763;28;20217;-80
2023/07/11 05:31:11;;;;;;;3.70;1.42;;;20.30;99.90;;;;;;5051944;28;20218;-81
2023/07/11 05:33:38;;;;;;;4.40;1.67;;;20.30;99.90;;;;;;5054980;28;20233;-81
2023/07/11 05:36:13;;;;;;;4.20;1.77;;;20.30;99.90;;;;;;5055830;28;20526;-81
2023/07/11 05:38:40;;;;;;;5.30;1.92;;;20.30;99.90;;;;;;5056129;28;20193;-82
2023/07/11 05:41:09;;;;;;;3.13;1.83;;;20.30;99.90;;;;;;5054986;28;20240;-81
2023/07/11 05:43:36;;;;;;;4.85;1.80;;;20.30;99.90;;;;;;5066217;28;20233;-82
2023/07/11 05:46:03;;;;;;;3.95;1.65;;;20.30;99.90;;;;;;5075822;28;20201;-82
2023/07/11 05:48:30;;;;;;;5.13;1.50;;;20.40;99.90;;;;;;5055092;28;20301;-82
2023/07/11 05:51:01;;;;;;;7.90;2.15;;;20.60;99.90;;;;;;5055849;28;20289;-79
2023/07/11 05:53:28;;;;;;;4.25;2.00;;;20.70;99.90;;;;;;5054535;28;20313;-80
2023/07/11 05:55:56;;;;;;;7.80;1.70;;;20.80;99.90;;;;;;5055632;28;20209;-81
2023/07/11 05:58:25;;;;;;;5.15;1.75;;;20.90;99.90;;;;;;5055767;28;20289;-82
2023/07/11 06:00:53;;;;;;;10.68;2.45;;;21.00;99.90;;;;;;5054520;28;20232;-81
2023/07/11 06:03:20;;;;;;;6.20;1.80;;;21.10;99.90;;;;;;5055882;28;20198;-81
2023/07/11 06:05:47;;;;;;;3.42;1.90;;;21.10;99.90;;;;;;5063580;28;20205;-81
2023/07/11 06:08:14;;;;;;;4.13;1.63;;;21.20;99.90;;;;;;5074497;28;20641;-79
2023/07/11 06:10:42;;;;;;;6.35;3.58;;;21.10;99.90;;;;;;5064972;28;20691;-81
2023/07/11 06:13:11;;;;;;;4.55;1.90;;;21.30;99.90;;;;;;5063741;28;20296;-80
2023/07/11 06:15:40;;;;;;;8.20;2.25;;;21.60;99.90;;;;;;5074124;28;20247;-82
2023/07/11 06:18:08;;;;;;;5.93;2.10;;;21.90;99.90;;;;;;5059949;28;20638;-80
2023/07/11 06:20:35;;;;;;;6.43;2.15;;;22.10;99.90;;;;;;5054883;28;20533;-81
2023/07/11 06:23:02;;;;;;;5.65;2.08;;;22.30;99.90;;;;;;5054162;28;20354;-81
2023/07/11 06:25:29;;;;;;;6.18;1.90;;;22.50;99.90;;;;;;5054813;28;20269;-80
2023/07/11 06:27:56;;;;;;;3.58;1.70;;;22.50;99.90;;;;;;5054854;28;20229;-79
2023/07/11 06:30:23;;;;;;;7.03;2.08;;;22.60;99.90;;;;;;5054350;28;20276;-80
2023/07/11 06:32:51;;;;;;;5.70;2.20;;;22.70;99.90;;;;;;5055322;28;20202;-81
2023/07/11 06:35:18;;;;;;;5.28;1.90;;;23.00;99.90;;;;;;5054079;28;20214;-79
2023/07/11 06:37:45;;;;;;;9.60;2.30;;;23.20;99.90;;;;;;5071192;28;20229;-80
2023/07/11 06:40:13;;;;;;;3.92;2.30;;;23.40;99.90;;;;;;5073681;28;20929;-79
2023/07/11 06:42:40;;;;;;;5.60;2.40;;;23.50;99.90;;;;;;5072526;28;20257;-81
2023/07/11 06:45:08;;;;;;;4.00;2.22;;;23.70;99.90;;;;;;5072567;28;20656;-82
2023/07/11 06:47:35;;;;;;;5.07;2.63;;;23.90;99.90;;;;;;5070634;28;20255;-81
2023/07/11 06:50:06;;;;;;;7.95;2.45;;;24.10;99.90;;;;;;5073141;28;21146;-80
2023/07/11 06:52:33;;;;;;;7.93;2.53;;;24.20;99.90;;;;;;5070917;28;20201;-81
2023/07/11 06:55:00;;;;;;;7.28;3.00;;;24.30;99.90;;;;;;5054510;28;20202;-82
2023/07/11 06:57:27;;;;;;;4.63;2.60;;;24.30;99.90;;;;;;5063285;28;20197;-80
2023/07/11 06:59:54;;;;;;;8.40;2.78;;;24.30;99.90;;;;;;5074310;28;20288;-81
2023/07/11 07:02:21;;;;;;;4.68;1.95;;;24.40;99.90;;;;;;5054207;28;20590;-80
2023/07/11 07:04:48;;;;;;;4.53;2.05;;;24.60;99.90;;;;;;5053567;28;20205;-81
2023/07/11 07:07:16;;;;;;;4.95;2.33;;;25.00;99.90;;;;;;5055819;28;20545;-81
2023/07/11 07:09:43;;;;;;;7.32;2.22;;;25.30;99.90;;;;;;5053800;28;20208;-80
2023/07/11 07:12:10;;;;;;;4.88;1.98;;;25.70;99.90;;;;;;5067255;28;20221;-81
2023/07/11 07:14:38;;;;;;;4.05;2.00;;;26.00;99.90;;;;;;5060363;28;20208;-79
2023/07/11 07:17:05;;;;;;;4.95;2.05;;;26.30;99.90;;;;;;5052884;28;20633;-81
2023/07/11 07:19:32;;;;;;;4.70;1.92;;;26.40;99.90;;;;;;5052661;28;20292;-82
2023/07/11 07:21:59;;;;;;;5.03;2.08;;;26.40;99.90;;;;;;5065952;28;20220;-82
2023/07/11 07:24:27;;;;;;;3.25;1.90;;;26.40;99.90;;;;;;5073974;28;20299;-80
2023/07/11 07:26:54;;;;;;;5.10;2.08;;;26.50;99.90;;;;;;5060031;28;20298;-81
2023/07/11 07:29:23;;;;;;;3.65;1.90;;;26.70;99.90;;;;;;5052997;28;20202;-81
2023/07/11 07:31:50;;;;;;;6.90;2.22;;;26.70;99.90;;;;;;5064089;28;20205;-81
2023/07/11 07:34:17;;;;;;;4.47;2.10;;;27.00;99.90;;;;;;5068575;28;20554;-81
2023/07/11 07:36:44;;;;;;;4.20;1.77;;;27.30;99.90;;;;;;5061582;28;20849;-81
2023/07/11 07:39:11;;;;;;;4.97;1.75;;;27.50;99.90;;;;;;5051995;28;20599;-81
2023/07/11 07:41:40;;;;;;;4.53;2.08;;;27.60;99.90;;;;;;5053060;28;20202;-81
2023/07/11 07:44:07;;;;;;;4.82;2.05;;;27.80;1.00;;;;;;5053353;28;20257;-82
2023/07/11 07:46:34;;;;;;;8.13;2.20;;;28.00;98.30;;;;;;5052493;28;20208;-83
2023/07/11 07:49:01;;;;;;;8.43;2.40;;;28.30;1.00;;;;;;5072666;28;20295;-82
2023/07/11 07:51:28;;;;;;;9.43;2.50;;;28.40;1.00;;;;;;5073486;28;20201;-81
2023/07/11 07:53:55;;;;;;;6.22;2.40;;;28.60;1.00;;;;;;5055884;28;20209;-81
2023/07/11 07:56:24;;;;;;;7.88;2.45;;;28.70;99.10;;;;;;5066115;28;20801;-81
2023/07/11 07:58:52;;;;;;;8.55;2.38;;;28.80;1.00;;;;;;5056883;28;20217;-82
2023/07/11 08:01:20;;;;;;;8.32;2.30;;;28.90;99.90;;;;;;5058793;28;20208;-81
2023/07/11 08:03:47;;;;;;;11.77;2.50;;;28.90;99.90;;;;;;5053981;28;20598;-83
2023/07/11 08:06:17;;;;;;;8.32;2.45;;;29.00;99.90;;;;;;5061158;28;20198;-84
2023/07/11 08:08:44;;;;;;;13.32;3.05;;;29.10;1.00;;;;;;5051548;28;20601;-84
2023/07/11 08:11:11;;;;;;;8.70;3.15;;;29.00;1.00;;;;;;5052731;28;20280;-83
2023/07/11 08:13:38;;;;;;;7.15;2.97;;;28.90;1.00;;;;;;5052547;28;20224;-82
2023/07/11 08:16:07;;;;;;;10.10;3.47;;;29.00;99.90;;;;;;5052910;28;20279;-82
2023/07/11 08:18:34;;;;;;;8.02;3.72;;;29.00;99.90;;;;;;5052912;28;20511;-80
2023/07/11 08:21:02;;;;;;;8.38;3.78;;;28.80;99.90;;;;;;5060697;28;20198;-80
2023/07/11 08:23:29;;;;;;;7.60;3.10;;;28.50;99.90;;;;;;5052014;28;20641;-81
2023/07/11 08:25:57;;;;;;;6.45;3.53;;;28.30;99.90;;;;;;5052656;28;20285;-83
2023/07/11 08:28:24;;;;;;;6.90;3.55;;;28.10;99.90;;;;;;5052686;28;20256;-82
2023/07/11 08:30:51;;;;;;;9.10;3.70;;;28.00;99.90;;;;;;5060877;28;20236;-81
2023/07/11 08:33:20;;;;;;;9.73;4.03;;;28.00;99.90;;;;;;5072124;28;20283;-83
2023/07/11 08:35:47;;;;;;;5.43;3.00;;;28.20;1.00;;;;;;5066572;28;20217;-80
2023/07/11 08:38:14;;;;;;;6.72;3.28;;;28.30;1.00;;;;;;5052660;28;20497;-80
2023/07/11 08:40:43;;;;;;;9.40;3.63;;;28.30;1.00;;;;;;5052442;28;20641;-79
2023/07/11 08:43:14;;;;;;;11.75;4.10;;;28.20;1.00;;;;;;5051903;28;20770;-81
2023/07/11 08:45:49;;;;;;;9.23;3.83;;;28.20;1.00;;;;;;5063138;28;20201;-83
2023/07/11 08:48:24;;;;;;;7.47;3.90;;;28.10;99.90;;;;;;5067554;28;20217;-82
2023/07/11 08:51:03;;;;;;;8.95;4.93;;;28.10;1.00;;;;;;5051494;28;20278;-80
2023/07/11 08:53:33;;;;;;;7.93;4.65;;;28.10;1.00;;;;;;5052404;28;20232;-81
2023/07/11 08:56:14;;;;;;;10.40;4.35;;;28.10;1.00;;;;;;5052416;28;20236;-81
2023/07/11 08:58:44;;;;;;;8.43;5.22;;;28.30;1.00;;;;;;5051608;28;20287;-80
2023/07/11 09:01:29;;;;;;;10.35;3.72;;;28.50;1.00;;;;;;5051510;28;20643;-78
2023/07/11 09:03:59;;;;;;;9.50;3.35;;;28.80;1.00;;;;;;5051039;28;20224;-82
2023/07/11 09:06:35;;;;;;;8.82;3.65;;;29.10;1.00;;;;;;5069820;28;20193;-79
2023/07/11 09:09:04;;;;;;;6.85;2.75;;;29.40;99.90;;;;;;5071258;28;20261;-80
2023/07/11 09:11:38;;;;;;;8.05;2.75;;;29.20;99.90;;;;;;5068275;28;20197;-80
2023/07/11 09:14:15;;;;;;;10.50;3.65;;;29.20;99.90;;;;;;5071688;28;20209;-82
2023/07/11 09:16:51;;;;;;;9.45;2.70;;;29.40;99.90;;;;;;5072034;28;20248;-84
2023/07/11 09:19:39;;;;;;;8.60;2.83;;;29.50;99.90;;;;;;5068404;28;20193;-83
2023/07/11 09:22:20;;;;;;;9.43;2.58;;;29.40;1.00;;;;;;5071812;28;20930;-81
2023/07/11 09:24:53;;;;;;;8.75;2.35;;;29.40;99.90;;;;;;5069520;28;20533;-80
2023/07/11 09:27:26;;;;;;;8.93;2.42;;;29.40;99.90;;;;;;5069985;28;20276;-84
2023/07/11 09:29:54;;;;;;;6.57;2.65;;;29.50;1.00;;;;;;5071701;28;20268;-87
2023/07/11 09:32:25;;;;;;;9.18;2.42;;;29.60;99.90;;;;;;5058569;28;20707;-83
2023/07/11 09:34:53;;;;;;;9.07;2.60;;;29.70;99.90;;;;;;5051643;28;20194;-85
2023/07/11 09:37:29;;;;;;;8.13;2.33;;;29.70;99.90;;;;;;5051142;28;20555;-84
2023/07/11 09:40:03;;;;;;;7.07;2.90;;;29.70;99.90;;;;;;5050434;28;20281;-83
2023/07/11 09:42:41;;;;;;;13.05;2.72;;;29.40;99.90;;;;;;5051719;28;20220;-82
2023/07/11 09:45:12;;;;;;;6.47;2.75;;;29.20;99.90;;;;;;5051811;28;20268;-82
2023/07/11 09:47:41;;;;;;;6.10;2.75;;;29.00;99.90;;;;;;5052191;28;20225;-87
2023/07/11 09:50:23;;;;;;;8.80;2.70;;;28.90;99.90;;;;;;5052860;28;20217;-82
2023/07/11 09:52:52;;;;;;;5.75;2.28;;;28.90;99.90;;;;;;5054635;28;20209;-84
2023/07/11 09:55:33;;;;;;;8.55;2.38;;;29.00;99.90;;;;;;5069524;28;20284;-83
2023/07/11 09:58:01;;;;;;;6.40;2.10;;;29.10;99.90;;;;;;5062469;28;20198;-85
2023/07/11 10:00:28;;;;;;;8.05;2.40;;;28.90;99.90;;;;;;5059296;28;21100;-81
2023/07/11 10:02:59;;;;;;;5.75;2.05;;;28.90;99.90;;;;;;5057779;28;20278;-81
2023/07/11 10:05:28;;;;;;;4.72;1.85;;;28.90;99.90;;;;;;5051435;28;20614;-81
2023/07/11 10:08:02;;;;;;;6.65;2.30;;;28.90;99.90;;;;;;5050403;28;20293;-85
2023/07/11 10:10:29;;;;;;;5.95;1.45;;;29.00;99.90;;;;;;5071055;28;20503;-80
2023/07/11 10:13:02;;;;;;;6.95;1.90;;;28.90;99.90;;;;;;5060073;28;20201;-80
2023/07/11 10:15:29;;;;;;;6.53;2.00;;;28.90;99.90;;;;;;5050139;28;20190;-80
2023/07/11 10:17:56;;;;;;;7.45;2.20;;;29.00;99.90;;;;;;5051709;28;20225;-82
2023/07/11 10:20:25;;;;;;;9.40;1.88;;;29.00;99.90;;;;;;5054238;28;20205;-78
2023/07/11 10:23:01;;;;;;;8.50;2.47;;;29.10;99.90;;;;;;5054229;28;21038;-80
2023/07/11 10:25:31;;;;;;;4.88;1.77;;;29.20;99.90;;;;;;5055304;28;20206;-79
2023/07/11 10:28:08;;;;;;;4.85;2.10;;;29.00;99.90;;;;;;5053974;28;20224;-82
2023/07/11 10:30:39;;;;;;;5.82;2.15;;;28.70;99.90;;;;;;5054723;28;20531;-79
2023/07/11 10:33:14;;;;;;;9.35;2.33;;;28.60;99.90;;;;;;5055133;28;20189;-78
2023/07/11 10:35:45;;;;;;;9.30;2.22;;;28.80;99.90;;;;;;5054417;28;20197;-84
2023/07/11 10:38:19;;;;;;;6.35;2.13;;;28.80;99.90;;;;;;5067742;28;20204;-81
2023/07/11 10:40:49;;;;;;;4.85;1.80;;;29.00;99.90;;;;;;5065540;28;20194;-81
2023/07/11 10:43:29;;;;;;;7.32;2.00;;;29.20;99.90;;;;;;5054781;28;20331;-87
2023/07/11 10:46:02;;;;;;;9.00;2.05;;;29.20;99.90;;;;;;5055628;28;20201;-81
2023/07/11 10:48:39;;;;;;;6.35;2.22;;;29.00;99.90;;;;;;5055864;28;20321;-82
2023/07/11 10:51:09;;;;;;;4.70;1.85;;;29.10;99.90;;;;;;5055428;28;20190;-83
2023/07/11 10:53:42;;;;;;;5.97;2.10;;;29.30;99.90;;;;;;5055543;28;20197;-80
2023/07/11 10:56:15;;;;;;;6.53;1.52;;;29.40;99.90;;;;;;5054077;28;20229;-81
2023/07/11 10:58:42;;;;;;;6.85;2.30;;;29.20;99.90;;;;;;5053113;28;20210;-80
2023/07/11 11:01:19;;;;;;;7.18;1.80;;;29.30;99.90;;;;;;5053178;28;20205;-81
2023/07/11 11:03:47;;;;;;;7.93;2.22;;;29.50;99.90;;;;;;5065403;28;20205;-83
2023/07/11 11:06:50;;;;;;;7.55;1.95;;;29.60;99.90;;;;;;5071358;28;20204;-82
2023/07/11 11:09:25;;;;;;;6.70;2.70;;;29.70;99.90;;;;;;5054019;28;20656;-81
2023/07/11 11:12:00;;;;;;;6.75;2.40;;;29.50;99.90;;;;;;5053393;28;20275;-80
2023/07/11 11:14:34;;;;;;;7.25;2.20;;;29.50;99.90;;;;;;5054215;28;20197;-80
2023/07/11 11:17:11;;;;;;;8.27;2.58;;;29.50;99.90;;;;;;5053826;28;20671;-80
2023/07/11 11:19:52;;;;;;;6.47;2.60;;;29.30;99.90;;;;;;5054617;28;20237;-81
2023/07/11 11:22:25;;;;;;;7.13;2.45;;;29.40;1.00;;;;;;5054201;28;20190;-79
2023/07/11 11:25:00;;;;;;;5.30;2.42;;;29.30;1.00;;;;;;5056928;28;20522;-79
2023/07/11 11:27:48;;;;;;;7.35;3.28;;;29.30;1.00;;;;;;5067094;28;20565;-83
2023/07/11 11:30:27;;;;;;;7.78;2.97;;;29.40;99.90;;;;;;5053304;28;20225;-83
2023/07/11 11:33:03;;;;;;;7.75;2.65;;;29.30;99.90;;;;;;5051944;28;20205;-80
2023/07/11 11:35:40;;;;;;;9.73;3.20;;;29.30;1.00;;;;;;5053120;28;20573;-82
2023/07/11 11:38:26;;;;;;;8.43;3.08;;;29.10;1.00;;;;;;5052424;28;20217;-82
2023/07/11 11:40:59;;;;;;;9.45;3.05;;;29.00;1.00;;;;;;5052338;28;20603;-84
2023/07/11 11:43:27;;;;;;;9.10;2.63;;;29.10;1.00;;;;;;5052971;28;20316;-84
2023/07/11 11:45:55;;;;;;;6.18;2.85;;;29.20;1.00;;;;;;5053137;28;20197;-78
2023/07/11 11:48:25;;;;;;;10.07;2.85;;;29.20;99.90;;;;;;5053217;28;20202;-81
2023/07/11 11:50:53;;;;;;;7.00;2.35;;;29.00;99.90;;;;;;5052645;28;20193;-78
2023/07/11 11:53:24;;;;;;;9.13;3.35;;;29.00;99.90;;;;;;5052839;28;20224;-77
2023/07/11 11:55:57;;;;;;;8.23;3.75;;;29.00;99.90;;;;;;5052981;28;20202;-81
2023/07/11 11:58:25;;;;;;;9.30;3.17;;;28.90;99.90;;;;;;5053111;28;20190;-80
2023/07/11 12:00:55;;;;;;;5.97;2.33;;;28.90;99.90;;;;;;5056530;28;20233;-80
2023/07/11 12:03:27;;;;;;;7.57;2.65;;;28.80;99.90;;;;;;5073242;28;20551;-84
2023/07/11 12:05:56;;;;;;;6.95;2.72;;;28.80;99.90;;;;;;5072907;28;20193;-81
2023/07/11 12:08:29;;;;;;;9.05;2.70;;;28.80;99.90;;;;;;5066193;28;20616;-81
2023/07/11 12:11:18;;;;;;;7.50;2.15;;;28.80;99.90;;;;;;5052264;28;20197;-81
2023/07/11 12:14:19;;;;;;;8.18;2.83;;;28.60;99.90;;;;;;5052304;28;20282;-79
2023/07/11 12:16:49;;;;;;;8.90;2.85;;;28.70;99.90;;;;;;5052264;28;20234;-80
2023/07/11 12:19:32;;;;;;;5.43;2.17;;;28.80;99.90;;;;;;5052241;28;20201;-80
2023/07/11 12:22:05;;;;;;;7.97;2.63;;;28.70;99.90;;;;;;5071629;28;20489;-77
2023/07/11 12:24:46;;;;;;;6.57;3.08;;;28.70;99.90;;;;;;5071426;28;20205;-79
2023/07/11 12:27:52;;;;;;;10.15;4.05;;;28.80;99.90;;;;;;5052816;28;20633;-80
2023/07/11 12:30:40;;;;;;;9.32;3.75;;;28.80;99.90;;;;;;5052754;28;20218;-79
2023/07/11 12:33:30;;;;;;;5.95;2.97;;;28.90;99.90;;;;;;5052605;28;20598;-80
2023/07/11 12:36:20;;;;;;;6.07;2.42;;;29.10;99.90;;;;;;5052023;28;20284;-81
2023/07/11 12:38:55;;;;;;;6.32;2.22;;;29.20;99.90;;;;;;5057541;28;20233;-79
2023/07/11 12:41:29;;;;;;;7.82;2.00;;;29.10;99.90;;;;;;5051155;28;20197;-80
2023/07/11 12:43:56;;;;;;;6.93;2.72;;;29.20;99.90;;;;;;5056277;28;20257;-81
2023/07/11 12:46:34;;;;;;;7.95;2.50;;;29.20;99.90;;;;;;5068709;28;20231;-82
2023/07/11 12:49:03;;;;;;;9.63;2.80;;;29.10;99.90;;;;;;5070637;28;20315;-80
2023/07/11 12:51:33;;;;;;;5.40;2.47;;;28.90;99.90;;;;;;5071665;28;20201;-81
2023/07/11 12:54:11;;;;;;;7.07;2.70;;;28.70;99.90;;;;;;5063828;28;20201;-80
2023/07/11 12:56:43;;;;;;;7.07;3.22;;;28.50;99.90;;;;;;5067090;28;20479;-84
2023/07/11 12:59:23;;;;;;;5.32;2.80;;;28.40;99.90;;;;;;5052895;28;20197;-80
2023/07/11 13:01:53;;;;;;;5.85;2.92;;;28.40;99.90;;;;;;5062938;28;20205;-80